Time;durP1;ratioP1;P1;durP2;ratioP2;P2;SDS_P1;SDS_P2;PMS_P1;PMS_P2;Temp;Humidity;BMP_temperature;BMP_pressure;BME280_temperature;BME280_humidity;BME280_pressure;Samples;Min_cycle;Max_cycle;Signal;HPM_P1;HPM_P2
2023/03/04 00:01:35;;;;;;;59.50;33.33;;;2.30;99.90;;;;;;5130345;27;20205;-84
2023/03/04 00:04:02;;;;;;;56.37;32.53;;;2.20;99.90;;;;;;5132340;27;20198;-84
2023/03/04 00:06:28;;;;;;;57.30;32.37;;;2.10;99.90;;;;;;5131595;27;20187;-85
2023/03/04 00:08:55;;;;;;;61.87;33.67;;;2.00;99.90;;;;;;5127429;27;20199;-84
2023/03/04 00:11:22;;;;;;;58.97;33.17;;;1.90;99.90;;;;;;5130977;27;20277;-84
2023/03/04 00:13:50;;;;;;;56.53;32.93;;;1.80;99.90;;;;;;5117892;27;20254;-84
2023/03/04 00:16:17;;;;;;;59.37;33.03;;;1.90;99.90;;;;;;5136941;27;20553;-84
2023/03/04 00:18:45;;;;;;;62.57;33.80;;;1.90;99.90;;;;;;5111181;27;20206;-83
2023/03/04 00:21:12;;;;;;;58.23;31.97;;;2.00;99.90;;;;;;5136397;27;20191;-85
2023/03/04 00:23:40;;;;;;;60.77;34.03;;;2.00;99.90;;;;;;5130668;27;20321;-85
2023/03/04 00:26:08;;;;;;;80.57;44.27;;;1.90;99.90;;;;;;5142128;27;20561;-87
2023/03/04 00:28:35;;;;;;;58.97;33.40;;;2.00;99.90;;;;;;5133098;27;20253;-86
2023/03/04 00:31:02;;;;;;;71.07;40.27;;;2.10;99.90;;;;;;5115511;27;20242;-84
2023/03/04 00:33:28;;;;;;;76.97;43.70;;;2.20;99.90;;;;;;5132624;27;20195;-85
2023/03/04 00:35:57;;;;;;;65.97;37.90;;;2.40;99.90;;;;;;5133905;27;20218;-84
2023/03/04 00:38:24;;;;;;;58.50;33.37;;;2.40;99.90;;;;;;5134595;27;20195;-84
2023/03/04 00:40:50;;;;;;;57.33;33.30;;;2.30;99.90;;;;;;5137492;27;20211;-86
2023/03/04 00:43:17;;;;;;;59.60;34.67;;;2.40;99.90;;;;;;5135600;27;20199;-85
2023/03/04 00:45:44;;;;;;;56.37;32.37;;;2.30;99.90;;;;;;5131660;27;20200;-84
2023/03/04 00:48:11;;;;;;;55.90;32.13;;;2.40;99.90;;;;;;5135067;27;20191;-84
2023/03/04 00:50:38;;;;;;;60.40;35.53;;;2.40;99.90;;;;;;5133125;27;20795;-84
2023/03/04 00:53:07;;;;;;;59.27;35.23;;;2.20;99.90;;;;;;5133298;27;20206;-85
2023/03/04 00:55:34;;;;;;;56.50;32.23;;;2.20;99.90;;;;;;5130996;27;20683;-84
2023/03/04 00:58:01;;;;;;;58.37;34.00;;;2.20;99.90;;;;;;5114167;27;20199;-84
2023/03/04 01:00:27;;;;;;;60.90;35.47;;;2.20;99.90;;;;;;5111766;27;20195;-89
2023/03/04 01:02:54;;;;;;;63.17;37.83;;;2.10;99.90;;;;;;5140408;27;20594;-85
2023/03/04 01:05:21;;;;;;;63.47;37.33;;;2.20;99.90;;;;;;5132777;27;20218;-85
2023/03/04 01:07:49;;;;;;;60.17;33.70;;;2.40;99.90;;;;;;5136232;27;20197;-85
2023/03/04 01:10:18;;;;;;;59.13;35.43;;;2.20;99.90;;;;;;5130839;27;20192;-85
2023/03/04 01:12:45;;;;;;;60.17;36.67;;;2.30;99.90;;;;;;5138019;27;20252;-85
2023/03/04 01:15:13;;;;;;;66.07;37.20;;;2.30;99.90;;;;;;5132742;27;20241;-84
2023/03/04 01:17:40;;;;;;;59.67;32.83;;;2.30;99.90;;;;;;5139351;27;20195;-83
2023/03/04 01:20:09;;;;;;;65.13;37.47;;;2.30;99.90;;;;;;5132165;27;20199;-84
2023/03/04 01:22:36;;;;;;;59.57;34.00;;;2.40;99.90;;;;;;5126584;27;20223;-86
2023/03/04 01:25:03;;;;;;;62.03;35.47;;;2.40;99.90;;;;;;5129001;27;20204;-85
2023/03/04 01:27:31;;;;;;;53.10;30.83;;;2.20;99.90;;;;;;5127279;27;20684;-84
2023/03/04 01:29:58;;;;;;;52.53;30.57;;;2.10;99.90;;;;;;5131439;27;20199;-86
2023/03/04 01:32:25;;;;;;;55.23;31.33;;;1.90;99.90;;;;;;5126138;27;20207;-86
2023/03/04 01:34:52;;;;;;;53.20;30.97;;;1.70;99.90;;;;;;5133011;27;20226;-86
2023/03/04 01:37:19;;;;;;;57.03;33.90;;;1.60;99.90;;;;;;5136423;27;20210;-87
2023/03/04 01:39:46;;;;;;;68.00;36.23;;;1.60;99.90;;;;;;5125707;27;20215;-86
2023/03/04 01:42:18;;;;;;;66.90;36.70;;;1.80;99.90;;;;;;5137572;27;20218;-85
2023/03/04 01:44:48;;;;;;;58.77;32.83;;;2.00;99.90;;;;;;5130730;27;20199;-87
2023/03/04 01:47:15;;;;;;;63.47;35.60;;;2.20;99.90;;;;;;5129794;27;20204;-85
2023/03/04 01:49:42;;;;;;;59.30;32.03;;;2.30;99.90;;;;;;5131082;27;20198;-85
2023/03/04 01:52:12;;;;;;;57.23;32.00;;;2.50;99.90;;;;;;5128798;27;20199;-85
2023/03/04 01:54:38;;;;;;;51.03;29.70;;;2.40;99.90;;;;;;5131702;27;20230;-86
2023/03/04 01:57:15;;;;;;;54.30;30.00;;;2.30;99.90;;;;;;5134577;27;20226;-86
2023/03/04 01:59:42;;;;;;;51.20;30.20;;;2.30;99.90;;;;;;5132654;27;20225;-86
2023/03/04 02:02:11;;;;;;;49.70;29.40;;;2.10;99.90;;;;;;5112639;27;20210;-87
2023/03/04 02:04:38;;;;;;;54.90;31.83;;;1.90;99.90;;;;;;5125563;27;20204;-86
2023/03/04 02:07:06;;;;;;;54.93;32.37;;;1.80;99.90;;;;;;5129405;27;20204;-86
2023/03/04 02:09:34;;;;;;;51.23;31.00;;;1.90;99.90;;;;;;5136356;27;20206;-85
2023/03/04 02:12:01;;;;;;;47.23;29.03;;;1.90;99.90;;;;;;5133310;27;20205;-86
2023/03/04 02:14:29;;;;;;;52.07;29.50;;;1.90;99.90;;;;;;5130521;27;20191;-85
2023/03/04 02:16:56;;;;;;;58.10;33.30;;;1.80;99.90;;;;;;5130715;27;20566;-85
2023/03/04 02:19:38;;;;;;;55.73;32.67;;;1.90;99.90;;;;;;5122171;27;20195;-85
2023/03/04 02:22:05;;;;;;;52.23;30.97;;;2.00;99.90;;;;;;5129447;27;20229;-85
2023/03/04 02:24:38;;;;;;;49.40;28.83;;;2.00;99.90;;;;;;5124421;27;20198;-85
2023/03/04 02:27:07;;;;;;;48.13;29.70;;;2.00;99.90;;;;;;5121337;27;20203;-86
2023/03/04 02:29:35;;;;;;;50.43;29.57;;;2.00;99.90;;;;;;5130270;27;20222;-86
2023/03/04 02:32:02;;;;;;;52.20;30.90;;;1.90;99.90;;;;;;5136618;27;20203;-85
2023/03/04 02:34:31;;;;;;;46.00;29.60;;;1.90;99.90;;;;;;5132989;27;20204;-86
2023/03/04 02:36:58;;;;;;;49.03;29.10;;;1.80;99.90;;;;;;5124461;27;20203;-90
2023/03/04 02:39:31;;;;;;;55.30;32.90;;;1.70;99.90;;;;;;5126232;27;20198;-85
2023/03/04 02:41:58;;;;;;;51.13;30.47;;;1.70;99.90;;;;;;5123204;27;20231;-88
2023/03/04 02:44:28;;;;;;;49.30;28.60;;;1.70;99.90;;;;;;5123188;27;20223;-85
2023/03/04 02:46:57;;;;;;;54.37;30.97;;;1.70;99.90;;;;;;5124819;27;20287;-85
2023/03/04 02:49:25;;;;;;;47.70;29.50;;;1.80;99.90;;;;;;5127822;27;20569;-86
2023/03/04 02:51:53;;;;;;;53.77;31.10;;;1.80;99.90;;;;;;5131652;27;20199;-85
2023/03/04 02:54:22;;;;;;;51.43;28.73;;;1.70;99.90;;;;;;5133618;27;20195;-85
2023/03/04 02:56:51;;;;;;;50.23;28.07;;;1.70;99.90;;;;;;5133075;27;20218;-86
2023/03/04 02:59:19;;;;;;;48.77;29.23;;;1.70;99.90;;;;;;5132531;27;20670;-85
2023/03/04 03:01:47;;;;;;;50.60;28.90;;;1.70;99.90;;;;;;5125785;27;20203;-85
2023/03/04 03:04:14;;;;;;;53.17;29.67;;;1.70;99.90;;;;;;5135966;27;20203;-86
2023/03/04 03:06:41;;;;;;;46.80;29.00;;;1.70;99.90;;;;;;5130279;27;20210;-85
2023/03/04 03:09:08;;;;;;;51.67;28.97;;;1.70;99.90;;;;;;5126885;27;20564;-85
2023/03/04 03:11:35;;;;;;;49.93;29.67;;;1.70;99.90;;;;;;5127226;27;20203;-85
2023/03/04 03:14:02;;;;;;;46.47;27.73;;;1.70;99.90;;;;;;5131233;27;20576;-85
2023/03/04 03:16:29;;;;;;;50.23;29.63;;;1.60;99.90;;;;;;5134731;27;20211;-85
2023/03/04 03:18:57;;;;;;;49.57;29.40;;;1.70;99.90;;;;;;5129717;27;20206;-86
2023/03/04 03:21:24;;;;;;;49.87;28.77;;;1.70;99.90;;;;;;5129708;27;20203;-85
2023/03/04 03:23:51;;;;;;;47.27;29.00;;;1.70;99.90;;;;;;5129902;27;20195;-87
2023/03/04 03:26:19;;;;;;;51.40;30.00;;;1.60;99.90;;;;;;5108808;27;20230;-86
2023/03/04 03:28:46;;;;;;;53.73;30.53;;;1.50;99.90;;;;;;5128869;27;20444;-85
2023/03/04 03:31:13;;;;;;;53.90;30.47;;;1.40;99.90;;;;;;5126437;27;20202;-85
2023/03/04 03:33:40;;;;;;;50.87;29.50;;;1.40;99.90;;;;;;5127622;27;20242;-85
2023/03/04 03:36:10;;;;;;;53.37;30.53;;;1.50;99.90;;;;;;5124300;27;20725;-85
2023/03/04 03:38:37;;;;;;;56.07;31.90;;;1.50;99.90;;;;;;5094940;28;20629;-85
2023/03/04 03:41:04;;;;;;;50.93;29.30;;;1.70;99.90;;;;;;5127706;27;20207;-85
2023/03/04 03:43:31;;;;;;;53.83;31.30;;;2.00;99.90;;;;;;5130200;27;20195;-85
2023/03/04 03:45:58;;;;;;;52.03;31.30;;;2.10;99.90;;;;;;5133702;27;20547;-86
2023/03/04 03:48:25;;;;;;;53.07;31.27;;;2.20;99.90;;;;;;5123241;27;21725;-87
2023/03/04 03:50:51;;;;;;;57.67;30.93;;;2.20;99.90;;;;;;5136685;27;20634;-85
2023/03/04 03:53:20;;;;;;;49.27;29.30;;;2.30;99.90;;;;;;5127619;27;20196;-87
2023/03/04 03:55:47;;;;;;;48.20;28.53;;;2.20;99.90;;;;;;5129989;27;20227;-86
2023/03/04 03:58:13;;;;;;;49.27;28.93;;;2.00;99.90;;;;;;5134285;27;20195;-85
2023/03/04 04:00:40;;;;;;;52.63;30.77;;;1.90;99.90;;;;;;5123307;27;20211;-86
2023/03/04 04:03:07;;;;;;;54.30;31.03;;;1.90;99.90;;;;;;5131655;27;20215;-85
2023/03/04 04:05:34;;;;;;;46.90;28.37;;;1.90;99.90;;;;;;5119325;27;20202;-85
2023/03/04 04:08:01;;;;;;;54.67;30.30;;;1.80;99.90;;;;;;5130157;27;20195;-85
2023/03/04 04:10:29;;;;;;;50.83;30.23;;;1.90;99.90;;;;;;5130471;28;20191;-85
2023/03/04 04:12:56;;;;;;;50.83;29.37;;;1.80;99.90;;;;;;5133918;27;20215;-86
2023/03/04 04:15:23;;;;;;;45.43;28.77;;;1.90;99.90;;;;;;5130161;27;20695;-89
2023/03/04 04:17:50;;;;;;;49.50;28.00;;;1.80;99.90;;;;;;5131192;27;20197;-85
2023/03/04 04:20:17;;;;;;;50.43;29.90;;;1.70;99.90;;;;;;5135351;27;20192;-86
2023/03/04 04:22:44;;;;;;;51.83;29.63;;;1.50;99.90;;;;;;5133898;27;20215;-85
2023/03/04 04:25:11;;;;;;;48.03;28.73;;;1.50;99.90;;;;;;5125511;27;20663;-86
2023/03/04 04:27:39;;;;;;;49.70;28.40;;;1.50;99.90;;;;;;5137488;27;20202;-85
2023/03/04 04:30:08;;;;;;;48.67;28.03;;;1.50;99.90;;;;;;5133616;27;20210;-85
2023/03/04 04:32:35;;;;;;;47.43;29.27;;;1.40;99.90;;;;;;5132287;27;20199;-86
2023/03/04 04:35:02;;;;;;;48.60;29.43;;;1.40;99.90;;;;;;5133094;27;20208;-85
2023/03/04 04:37:28;;;;;;;49.10;28.83;;;1.40;99.90;;;;;;5131599;27;20206;-85
2023/03/04 04:39:56;;;;;;;51.87;28.93;;;1.50;99.90;;;;;;5135351;27;20693;-85
2023/03/04 04:42:23;;;;;;;48.57;29.13;;;1.40;99.90;;;;;;5136254;27;20195;-85
2023/03/04 04:44:51;;;;;;;44.77;27.30;;;1.30;99.90;;;;;;5141889;27;20198;-85
2023/03/04 04:47:18;;;;;;;46.40;27.93;;;1.20;99.90;;;;;;5124085;27;20573;-85
2023/03/04 04:49:45;;;;;;;46.40;28.43;;;1.30;99.90;;;;;;5131090;27;20203;-85
2023/03/04 04:52:11;;;;;;;46.20;27.50;;;1.20;99.90;;;;;;5130802;27;20195;-85
2023/03/04 04:54:38;;;;;;;52.47;29.50;;;1.30;99.90;;;;;;5134828;27;20203;-86
2023/03/04 04:57:05;;;;;;;48.20;28.43;;;1.20;99.90;;;;;;5135405;27;20222;-85
2023/03/04 04:59:32;;;;;;;44.97;27.07;;;1.30;99.90;;;;;;5133526;27;20195;-86
2023/03/04 05:02:00;;;;;;;45.53;28.17;;;1.30;99.90;;;;;;5106761;27;20207;-87
2023/03/04 05:04:27;;;;;;;48.87;28.97;;;1.40;99.90;;;;;;5131581;27;20187;-85
2023/03/04 05:06:54;;;;;;;43.93;26.83;;;1.30;99.90;;;;;;5128575;27;20199;-85
2023/03/04 05:09:21;;;;;;;45.83;26.97;;;1.20;99.90;;;;;;5129723;27;20212;-87
2023/03/04 05:11:49;;;;;;;45.03;26.27;;;1.20;99.90;;;;;;5119251;27;20199;-84
2023/03/04 05:14:15;;;;;;;48.60;27.23;;;1.10;99.90;;;;;;5128307;27;20200;-85
2023/03/04 05:16:42;;;;;;;41.93;26.13;;;1.20;99.90;;;;;;5129408;27;20218;-85
2023/03/04 05:19:11;;;;;;;45.97;26.70;;;1.30;99.90;;;;;;5131252;27;20210;-85
2023/03/04 05:21:38;;;;;;;45.37;26.63;;;1.30;99.90;;;;;;5127883;27;20226;-85
2023/03/04 05:24:05;;;;;;;44.47;25.60;;;1.20;99.90;;;;;;5110559;27;20207;-85
2023/03/04 05:26:32;;;;;;;45.87;27.10;;;1.20;99.90;;;;;;5134997;27;20199;-85
2023/03/04 05:28:59;;;;;;;46.10;27.37;;;1.10;99.90;;;;;;5129859;27;20206;-85
2023/03/04 05:31:26;;;;;;;45.37;25.87;;;1.20;99.90;;;;;;5131483;27;20889;-85
2023/03/04 05:33:52;;;;;;;41.70;25.67;;;1.20;99.90;;;;;;5124886;27;20195;-85
2023/03/04 05:36:21;;;;;;;44.77;26.80;;;1.20;99.90;;;;;;5134206;27;20229;-85
2023/03/04 05:38:48;;;;;;;44.97;26.40;;;1.10;99.90;;;;;;5127438;27;20206;-85
2023/03/04 05:41:17;;;;;;;43.07;25.47;;;0.90;99.90;;;;;;5133095;27;20199;-84
2023/03/04 05:43:44;;;;;;;44.83;26.53;;;1.00;99.90;;;;;;5095555;27;20214;-84
2023/03/04 05:46:14;;;;;;;44.83;26.10;;;1.00;99.90;;;;;;5130308;27;20211;-85
2023/03/04 05:48:41;;;;;;;43.40;26.80;;;0.80;99.90;;;;;;5128792;27;20187;-85
2023/03/04 05:51:08;;;;;;;43.87;27.17;;;0.80;99.90;;;;;;5129658;27;20191;-85
2023/03/04 05:53:38;;;;;;;42.47;26.00;;;0.80;99.90;;;;;;5116427;27;20612;-85
2023/03/04 05:56:10;;;;;;;48.00;27.00;;;1.00;99.90;;;;;;5128606;27;20779;-85
2023/03/04 05:58:36;;;;;;;42.03;25.57;;;1.00;99.90;;;;;;5113203;27;20223;-87
2023/03/04 06:01:04;;;;;;;43.57;26.20;;;1.00;99.90;;;;;;5131990;27;20199;-85
2023/03/04 06:03:31;;;;;;;41.33;24.90;;;1.10;99.90;;;;;;5112573;27;20216;-85
2023/03/04 06:05:58;;;;;;;41.03;26.00;;;0.90;99.90;;;;;;5130635;27;20203;-86
2023/03/04 06:08:25;;;;;;;44.27;26.43;;;0.90;99.90;;;;;;5132029;27;20206;-85
2023/03/04 06:10:55;;;;;;;41.10;25.23;;;1.00;99.90;;;;;;5124468;27;20561;-86
2023/03/04 06:13:23;;;;;;;44.23;26.43;;;0.90;99.90;;;;;;5125421;27;20199;-85
2023/03/04 06:15:54;;;;;;;46.93;25.53;;;0.90;99.90;;;;;;5129094;27;20764;-85
2023/03/04 06:18:22;;;;;;;39.73;24.30;;;1.10;99.90;;;;;;5110414;27;20282;-85
2023/03/04 06:20:49;;;;;;;42.33;25.20;;;1.10;99.90;;;;;;5128415;27;20202;-85
2023/03/04 06:23:16;;;;;;;39.93;25.33;;;1.20;99.90;;;;;;5134230;27;20211;-85
2023/03/04 06:25:43;;;;;;;43.47;25.40;;;1.30;99.90;;;;;;5125876;27;20199;-85
2023/03/04 06:28:11;;;;;;;38.80;23.77;;;1.20;99.90;;;;;;5133607;27;20792;-86
2023/03/04 06:30:38;;;;;;;39.83;24.80;;;1.30;99.90;;;;;;5134090;27;20194;-89
2023/03/04 06:33:05;;;;;;;41.93;25.37;;;1.30;99.90;;;;;;5131581;27;20198;-85
2023/03/04 06:35:32;;;;;;;40.40;24.53;;;1.20;99.90;;;;;;5119530;27;20225;-88
2023/03/04 06:37:59;;;;;;;39.53;24.40;;;1.30;99.90;;;;;;5129180;27;20305;-85
2023/03/04 06:40:26;;;;;;;38.37;23.90;;;1.40;99.90;;;;;;5121051;27;20543;-88
2023/03/04 06:42:53;;;;;;;39.70;24.93;;;1.40;99.90;;;;;;5127927;27;20196;-85
2023/03/04 06:45:21;;;;;;;39.40;24.67;;;1.40;99.90;;;;;;5134218;27;20199;-85
2023/03/04 06:47:48;;;;;;;36.00;23.67;;;1.40;99.90;;;;;;5131494;27;20215;-85
2023/03/04 06:50:14;;;;;;;42.03;24.90;;;1.40;99.90;;;;;;5127278;27;20710;-86
2023/03/04 06:52:41;;;;;;;41.70;24.30;;;1.50;99.90;;;;;;5126260;27;20199;-84
2023/03/04 06:55:09;;;;;;;37.90;23.73;;;1.60;99.90;;;;;;5130109;27;20195;-85
2023/03/04 06:57:36;;;;;;;37.60;23.63;;;1.80;99.90;;;;;;5132529;27;20223;-86
2023/03/04 07:00:04;;;;;;;38.40;23.90;;;1.80;99.60;;;;;;5132975;27;20191;-85
2023/03/04 07:02:33;;;;;;;41.97;24.97;;;1.80;99.60;;;;;;5126603;27;20187;-87
2023/03/04 07:05:00;;;;;;;40.27;23.77;;;2.00;99.60;;;;;;5128707;27;20207;-86
2023/03/04 07:07:27;;;;;;;37.97;24.50;;;2.00;99.60;;;;;;5113187;27;20203;-84
2023/03/04 07:09:54;;;;;;;38.70;24.43;;;2.00;99.20;;;;;;5132542;27;20191;-84
2023/03/04 07:12:21;;;;;;;39.43;24.50;;;2.20;99.90;;;;;;5123004;27;20195;-84
2023/03/04 07:14:48;;;;;;;39.93;23.90;;;2.30;99.00;;;;;;5133453;27;20206;-85
2023/03/04 07:17:15;;;;;;;40.13;24.20;;;2.40;98.60;;;;;;5135453;27;20566;-84
2023/03/04 07:19:43;;;;;;;38.90;24.93;;;2.40;98.70;;;;;;5126671;27;20195;-84
2023/03/04 07:22:10;;;;;;;39.73;24.80;;;2.50;98.70;;;;;;5129966;27;20223;-84
2023/03/04 07:24:37;;;;;;;41.07;25.17;;;2.60;98.50;;;;;;5132913;27;20206;-84
2023/03/04 07:27:05;;;;;;;38.27;24.53;;;2.70;97.90;;;;;;5133226;27;20191;-85
2023/03/04 07:29:32;;;;;;;36.30;23.87;;;2.90;97.70;;;;;;5128591;27;20202;-85
2023/03/04 07:31:59;;;;;;;35.63;24.00;;;3.10;97.50;;;;;;5125266;27;20207;-85
2023/03/04 07:34:25;;;;;;;38.53;24.23;;;3.30;97.30;;;;;;5127891;27;20648;-85
2023/03/04 07:36:54;;;;;;;34.33;23.67;;;3.50;97.00;;;;;;5147593;27;20233;-85
2023/03/04 07:39:21;;;;;;;39.73;24.53;;;3.40;96.10;;;;;;5152402;27;20218;-86
2023/03/04 07:41:48;;;;;;;37.53;24.90;;;3.50;96.60;;;;;;5147643;27;20279;-85
2023/03/04 07:44:15;;;;;;;39.07;24.60;;;3.50;96.40;;;;;;5147407;27;20965;-88
2023/03/04 07:46:42;;;;;;;36.93;24.93;;;3.50;96.10;;;;;;5146829;27;20198;-85
2023/03/04 07:49:11;;;;;;;37.43;24.53;;;3.60;95.70;;;;;;5152187;27;20199;-87
2023/03/04 07:51:38;;;;;;;37.60;24.67;;;3.70;95.50;;;;;;5152763;27;21309;-87
2023/03/04 07:54:07;;;;;;;36.43;24.37;;;3.80;95.90;;;;;;5152338;27;20190;-90
2023/03/04 07:56:34;;;;;;;40.10;25.03;;;4.00;95.80;;;;;;5152064;27;20210;-87
2023/03/04 07:59:02;;;;;;;34.70;23.73;;;4.10;95.20;;;;;;5149165;27;20237;-87
2023/03/04 08:01:30;;;;;;;40.57;25.00;;;4.50;94.60;;;;;;5151350;27;20190;-87
2023/03/04 08:03:57;;;;;;;38.00;25.33;;;4.40;94.40;;;;;;5156986;27;20205;-88
2023/03/04 08:06:25;;;;;;;36.90;25.33;;;4.50;94.10;;;;;;5154455;27;20199;-87
2023/03/04 08:08:57;;;;;;;36.97;24.50;;;4.50;93.90;;;;;;5153661;27;20285;-87
2023/03/04 08:11:26;;;;;;;37.73;24.93;;;4.40;94.00;;;;;;5147498;27;20194;-88
2023/03/04 08:13:53;;;;;;;39.90;25.27;;;4.40;94.10;;;;;;5152133;27;20195;-86
2023/03/04 08:16:22;;;;;;;42.33;26.40;;;4.50;93.90;;;;;;5151758;27;20222;-87
2023/03/04 08:18:51;;;;;;;43.87;26.17;;;4.50;94.00;;;;;;5155918;27;20194;-88
2023/03/04 08:21:19;;;;;;;41.33;26.37;;;4.70;94.20;;;;;;5153333;27;20190;-87
2023/03/04 08:23:47;;;;;;;39.83;26.10;;;4.60;93.00;;;;;;5149333;27;20553;-89
2023/03/04 08:26:16;;;;;;;41.63;26.50;;;4.70;93.50;;;;;;5149813;27;20195;-89
2023/03/04 08:28:45;;;;;;;39.17;25.33;;;4.70;92.70;;;;;;5155063;27;20206;-87
2023/03/04 08:31:12;;;;;;;43.47;26.77;;;4.90;92.60;;;;;;5143705;27;20225;-90
2023/03/04 08:33:39;;;;;;;42.28;26.50;;;5.00;92.40;;;;;;5133265;27;20210;-88
2023/03/04 08:36:07;;;;;;;42.43;27.30;;;4.90;91.80;;;;;;5147241;27;20673;-87
2023/03/04 08:38:34;;;;;;;41.73;26.93;;;4.90;92.20;;;;;;5147281;27;20218;-88
2023/03/04 08:41:02;;;;;;;42.30;27.07;;;4.80;92.30;;;;;;5153301;27;20203;-88
2023/03/04 08:43:29;;;;;;;40.90;25.73;;;4.90;92.30;;;;;;5131784;27;20721;-87
2023/03/04 08:45:57;;;;;;;43.03;26.60;;;5.10;92.10;;;;;;5150948;27;20202;-88
2023/03/04 08:48:25;;;;;;;40.93;25.90;;;5.20;91.40;;;;;;5150094;27;20193;-87
2023/03/04 08:50:52;;;;;;;38.37;25.93;;;5.10;92.00;;;;;;5158596;27;20565;-86
2023/03/04 08:53:20;;;;;;;38.67;25.95;;;5.20;91.40;;;;;;5158631;27;20187;-87
2023/03/04 08:55:47;;;;;;;39.17;25.40;;;5.40;91.80;;;;;;5151808;27;20197;-87
2023/03/04 08:58:14;;;;;;;34.83;23.33;;;5.50;90.40;;;;;;5154757;27;20706;-88
2023/03/04 09:00:47;;;;;;;36.85;25.08;;;5.70;89.40;;;;;;5153530;27;20208;-85
2023/03/04 09:03:20;;;;;;;37.55;24.75;;;6.00;89.60;;;;;;5156959;27;20186;-88
2023/03/04 09:05:48;;;;;;;39.20;25.30;;;6.10;85.80;;;;;;5138532;27;20194;-88
2023/03/04 09:08:16;;;;;;;37.60;23.80;;;6.30;86.20;;;;;;5140679;27;20239;-88
2023/03/04 09:10:45;;;;;;;37.10;23.65;;;6.60;82.90;;;;;;5158106;27;20187;-90
2023/03/04 09:13:28;;;;;;;37.65;23.77;;;6.80;79.00;;;;;;5166350;27;20202;-87
2023/03/04 09:15:56;;;;;;;35.65;23.70;;;6.80;73.00;;;;;;5152166;27;20197;-85
2023/03/04 09:18:25;;;;;;;37.25;24.63;;;6.90;76.00;;;;;;5152423;27;20304;-86
2023/03/04 09:20:53;;;;;;;34.22;24.98;;;7.40;70.20;;;;;;5177806;27;20197;-87
2023/03/04 09:23:23;;;;;;;34.25;24.15;;;7.80;68.90;;;;;;5154481;27;20218;-88
2023/03/04 09:25:50;;;;;;;33.80;23.80;;;8.10;52.10;;;;;;5119156;27;20234;-85
2023/03/04 09:28:17;;;;;;;33.15;23.60;;;8.60;47.20;;;;;;5156326;27;20199;-84
2023/03/04 09:30:45;;;;;;;33.42;24.13;;;8.90;47.40;;;;;;5150596;27;20217;-86
2023/03/04 09:33:12;;;;;;;32.28;23.30;;;9.50;40.30;;;;;;5146836;27;20194;-87
2023/03/04 09:35:40;;;;;;;32.90;24.45;;;9.90;37.00;;;;;;5148989;27;20204;-87
2023/03/04 09:38:08;;;;;;;30.50;24.27;;;10.30;33.00;;;;;;5132165;27;20879;-89
2023/03/04 09:40:39;;;;;;;35.58;23.90;;;10.30;30.70;;;;;;5147759;27;20289;-88
2023/03/04 09:43:15;;;;;;;34.55;23.30;;;10.20;31.90;;;;;;5142776;27;20199;-88
2023/03/04 09:45:47;;;;;;;34.00;23.00;;;10.90;28.10;;;;;;5153164;27;20208;-84
2023/03/04 09:48:17;;;;;;;30.00;23.77;;;11.20;27.90;;;;;;5154071;27;20198;-85
2023/03/04 09:50:55;;;;;;;28.70;22.63;;;11.20;26.00;;;;;;5130388;27;20227;-85
2023/03/04 09:53:30;;;;;;;30.55;23.40;;;11.40;25.40;;;;;;5155133;27;20201;-89
2023/03/04 09:55:58;;;;;;;26.05;20.63;;;11.80;25.10;;;;;;5159169;27;20200;-86
2023/03/04 09:58:39;;;;;;;29.23;23.08;;;11.60;24.80;;;;;;5151795;27;20217;-87
2023/03/04 10:01:12;;;;;;;23.52;20.27;;;11.70;24.50;;;;;;5134283;27;20237;-88
2023/03/04 10:03:47;;;;;;;26.63;19.92;;;11.80;20.90;;;;;;5155003;27;20662;-84
2023/03/04 10:06:18;;;;;;;24.95;21.08;;;11.60;22.30;;;;;;5154136;27;20651;-85
2023/03/04 10:08:51;;;;;;;30.70;20.77;;;11.50;21.90;;;;;;5144899;27;20213;-86
2023/03/04 10:11:24;;;;;;;29.77;21.58;;;11.60;24.90;;;;;;5151255;27;20553;-87
2023/03/04 10:14:04;;;;;;;30.70;21.58;;;11.50;23.70;;;;;;5145815;27;20194;-83
2023/03/04 10:16:36;;;;;;;28.30;21.75;;;11.50;23.30;;;;;;5143333;27;20646;-85
2023/03/04 10:19:20;;;;;;;32.05;21.70;;;11.50;23.00;;;;;;5128967;27;20241;-85
2023/03/04 10:21:51;;;;;;;27.63;21.58;;;11.60;25.00;;;;;;5149594;27;20215;-85
2023/03/04 10:24:21;;;;;;;28.73;21.33;;;11.80;21.20;;;;;;5130787;27;20240;-85
2023/03/04 10:26:52;;;;;;;26.30;21.10;;;11.50;23.00;;;;;;5144782;27;20206;-87
2023/03/04 10:29:21;;;;;;;29.13;22.20;;;11.50;24.90;;;;;;5147481;27;20206;-86
2023/03/04 10:31:49;;;;;;;27.67;21.70;;;11.80;24.20;;;;;;5146138;27;20190;-84
2023/03/04 10:34:18;;;;;;;24.38;21.10;;;11.50;25.00;;;;;;5147381;27;20195;-84
2023/03/04 10:36:56;;;;;;;29.98;22.45;;;12.20;21.00;;;;;;5147882;27;20195;-88
2023/03/04 10:39:27;;;;;;;29.25;21.75;;;12.70;19.70;;;;;;5148216;27;20710;-85
2023/03/04 10:41:58;;;;;;;33.45;23.50;;;12.50;20.10;;;;;;5146691;27;20199;-84
2023/03/04 10:44:25;;;;;;;31.20;24.08;;;12.10;22.90;;;;;;5151926;27;20195;-86
2023/03/04 10:46:55;;;;;;;29.67;24.05;;;11.90;25.20;;;;;;5152314;27;20199;-85
2023/03/04 10:49:23;;;;;;;33.22;24.48;;;12.10;25.40;;;;;;5158373;27;20198;-85
2023/03/04 10:51:54;;;;;;;30.90;24.02;;;11.70;25.10;;;;;;5127094;27;20677;-84
2023/03/04 10:54:28;;;;;;;32.47;24.23;;;11.30;24.80;;;;;;5140749;27;20199;-85
2023/03/04 10:57:01;;;;;;;29.50;23.55;;;11.20;25.90;;;;;;5144818;27;20230;-85
2023/03/04 10:59:35;;;;;;;31.13;24.02;;;11.30;24.80;;;;;;5144533;27;20199;-86
2023/03/04 11:02:20;;;;;;;30.95;23.63;;;11.90;25.20;;;;;;5127187;27;20190;-85
2023/03/04 11:04:52;;;;;;;31.80;22.67;;;11.90;22.90;;;;;;5149511;27;20195;-85
2023/03/04 11:07:21;;;;;;;29.58;22.20;;;12.00;23.70;;;;;;5135186;27;20234;-86
2023/03/04 11:09:48;;;;;;;28.13;21.75;;;11.80;25.10;;;;;;5144284;27;21623;-85
2023/03/04 11:12:20;;;;;;;29.80;22.40;;;11.50;26.00;;;;;;5124123;27;20190;-89
2023/03/04 11:14:49;;;;;;;28.67;22.27;;;11.00;24.50;;;;;;5152186;27;20218;-85
2023/03/04 11:17:20;;;;;;;31.40;22.92;;;10.60;24.10;;;;;;5150920;27;20197;-88
2023/03/04 11:19:50;;;;;;;29.73;21.08;;;10.60;24.10;;;;;;5152998;27;20195;-88
2023/03/04 11:22:21;;;;;;;30.55;21.88;;;10.20;26.30;;;;;;5150689;27;20838;-85
2023/03/04 11:24:57;;;;;;;30.40;21.48;;;10.20;27.80;;;;;;5151527;27;20190;-87
2023/03/04 11:27:30;;;;;;;35.55;21.70;;;9.90;29.30;;;;;;5133387;27;20194;-88
2023/03/04 11:30:03;;;;;;;29.75;20.67;;;9.60;29.30;;;;;;5147219;27;20195;-87
2023/03/04 11:32:34;;;;;;;31.90;20.90;;;9.30;31.00;;;;;;5127799;27;20195;-85
2023/03/04 11:35:08;;;;;;;31.33;20.38;;;9.20;32.90;;;;;;5130930;27;20191;-87
2023/03/04 11:37:39;;;;;;;31.60;21.90;;;9.10;32.70;;;;;;5128461;27;20207;-88
2023/03/04 11:40:15;;;;;;;35.28;21.90;;;9.00;32.90;;;;;;5142707;27;20197;-86
2023/03/04 11:42:45;;;;;;;30.55;20.38;;;8.90;34.00;;;;;;5143904;27;20197;-91
2023/03/04 11:45:14;;;;;;;32.03;22.00;;;8.70;34.40;;;;;;5145958;27;20197;-87
2023/03/04 11:48:02;;;;;;;35.20;22.23;;;8.40;35.50;;;;;;5149757;27;20206;-87
2023/03/04 11:50:35;;;;;;;32.83;21.40;;;8.50;37.40;;;;;;5129190;27;20203;-89
2023/03/04 11:53:42;;;;;;;34.38;22.95;;;8.40;36.80;;;;;;5145925;27;20195;-87
2023/03/04 11:56:30;;;;;;;32.53;22.20;;;8.50;38.60;;;;;;5111334;27;20654;-87
2023/03/04 11:59:18;;;;;;;32.53;21.92;;;8.60;39.60;;;;;;5149667;27;20218;-83
2023/03/04 12:01:56;;;;;;;36.10;22.10;;;8.60;38.00;;;;;;5147086;27;20650;-84
2023/03/04 12:04:40;;;;;;;33.63;22.60;;;8.80;40.70;;;;;;5150326;27;20194;-86
2023/03/04 12:07:21;;;;;;;35.80;23.17;;;8.80;40.70;;;;;;5144508;27;20221;-83
2023/03/04 12:10:02;;;;;;;37.67;22.60;;;8.80;37.50;;;;;;5137665;27;20207;-88
2023/03/04 12:12:53;;;;;;;33.28;22.75;;;8.80;38.90;;;;;;5123501;27;20250;-83
2023/03/04 12:15:28;;;;;;;34.92;22.17;;;8.80;39.60;;;;;;5147792;27;20662;-88
2023/03/04 12:18:15;;;;;;;32.42;22.58;;;8.90;37.20;;;;;;5140359;27;20716;-83
2023/03/04 12:20:51;;;;;;;34.58;23.42;;;8.90;39.20;;;;;;5145891;27;20191;-82
2023/03/04 12:23:31;;;;;;;36.75;22.52;;;8.90;37.70;;;;;;5147464;27;20234;-87
2023/03/04 12:26:03;;;;;;;31.38;21.48;;;8.70;37.70;;;;;;5149926;27;20526;-82
2023/03/04 12:28:51;;;;;;;36.38;22.40;;;8.50;36.80;;;;;;5142969;27;20203;-88
2023/03/04 12:31:34;;;;;;;38.65;23.33;;;8.60;37.50;;;;;;5146359;27;20194;-91
2023/03/04 12:34:27;;;;;;;36.60;22.88;;;8.80;37.00;;;;;;5123090;27;20227;-86
2023/03/04 12:37:09;;;;;;;31.70;21.52;;;8.70;37.20;;;;;;5138376;27;20278;-85
2023/03/04 12:39:41;;;;;;;35.20;21.83;;;8.80;38.20;;;;;;5138255;27;20215;-83
2023/03/04 12:42:22;;;;;;;35.28;22.58;;;8.80;38.80;;;;;;5143970;27;20215;-83
2023/03/04 12:45:01;;;;;;;30.42;21.35;;;8.90;37.40;;;;;;5145740;27;20195;-83
2023/03/04 12:47:35;;;;;;;34.50;22.48;;;9.10;34.80;;;;;;5151136;27;20195;-83